Time;durP1;ratioP1;P1;durP2;ratioP2;P2;SDS_P1;SDS_P2;PMS_P1;PMS_P2;Temp;Humidity;BMP_temperature;BMP_pressure;BME280_temperature;BME280_humidity;BME280_pressure;Samples;Min_cycle;Max_cycle;Signal;HPM_P1;HPM_P2
2022/07/18 00:00:54;;;;;;;2.60;1.70;;;19.80;51.10;;;19.71;63.27;101205.25;4987749;28;20050;-72
2022/07/18 00:03:21;;;;;;;4.50;1.88;;;19.70;51.10;;;19.52;65.74;101210.63;4989136;28;20042;-73
2022/07/18 00:05:48;;;;;;;3.08;2.13;;;19.80;51.50;;;19.50;65.80;101210.69;4989751;28;20038;-73
2022/07/18 00:08:15;;;;;;;2.72;2.15;;;19.70;51.50;;;19.41;67.99;101201.34;4989091;28;20057;-73
2022/07/18 00:10:42;;;;;;;4.63;1.70;;;19.60;51.80;;;19.31;69.04;101197.34;4987653;28;20038;-73
2022/07/18 00:13:09;;;;;;;2.53;1.70;;;19.50;51.90;;;19.43;66.33;101198.56;4986186;28;20042;-74
2022/07/18 00:15:37;;;;;;;3.08;1.70;;;19.50;51.70;;;19.34;68.71;101202.53;4968016;28;20043;-73
2022/07/18 00:18:04;;;;;;;2.65;1.73;;;19.40;52.00;;;19.23;69.26;101203.06;4981552;28;20137;-73
2022/07/18 00:20:32;;;;;;;3.17;2.00;;;19.40;52.20;;;19.21;68.85;101202.28;4987327;28;20035;-75
2022/07/18 00:22:59;;;;;;;2.88;2.00;;;19.30;52.20;;;19.05;71.30;101209.25;4987093;28;20053;-73
2022/07/18 00:25:26;;;;;;;3.63;1.75;;;19.30;52.50;;;18.96;72.36;101210.53;4988767;28;20042;-73
2022/07/18 00:27:53;;;;;;;3.22;2.25;;;19.20;52.60;;;18.85;73.37;101211.03;4989180;28;20145;-73
2022/07/18 00:30:20;;;;;;;2.67;1.77;;;19.20;52.70;;;18.77;75.90;101218.47;4988028;28;20049;-73
2022/07/18 00:32:47;;;;;;;2.92;1.75;;;19.00;53.10;;;18.75;76.19;101217.69;4988770;28;20057;-73
2022/07/18 00:35:14;;;;;;;3.67;1.98;;;19.00;53.30;;;18.73;75.61;101220.41;4987238;28;20046;-73
2022/07/18 00:37:41;;;;;;;4.63;1.52;;;18.90;53.30;;;18.76;72.94;101222.09;4971434;28;20077;-73
2022/07/18 00:40:09;;;;;;;5.88;2.17;;;18.90;53.10;;;18.69;71.91;101225.03;5002858;28;20053;-73
2022/07/18 00:42:36;;;;;;;3.90;2.05;;;18.80;53.00;;;18.58;70.31;101221.97;4987376;28;20042;-74
2022/07/18 00:45:03;;;;;;;3.03;1.75;;;18.80;52.70;;;18.57;69.93;101228.25;4986792;28;20062;-73
2022/07/18 00:47:30;;;;;;;4.47;1.90;;;18.80;52.60;;;18.51;72.19;101224.03;4988905;28;20132;-73
2022/07/18 00:49:58;;;;;;;8.52;1.92;;;18.70;53.00;;;18.40;74.17;101221.84;4987242;28;20035;-73
2022/07/18 00:52:25;;;;;;;2.70;1.88;;;18.70;53.30;;;18.33;76.69;101222.19;4988847;28;20050;-75
2022/07/18 00:54:52;;;;;;;6.50;1.88;;;18.60;53.70;;;18.34;76.09;101221.25;4986915;28;20049;-74
2022/07/18 00:57:18;;;;;;;2.38;1.80;;;18.50;53.80;;;18.35;72.92;101225.66;4987350;28;20050;-73
2022/07/18 01:02:32;;;;;;;3.13;1.83;;;18.50;53.80;;;18.38;76.10;101223.72;4986985;28;20049;-73
2022/07/18 01:04:59;;;;;;;3.72;2.05;;;18.50;54.10;;;18.46;74.62;101230.50;4988477;28;20052;-73
2022/07/18 01:07:26;;;;;;;4.88;2.35;;;18.50;53.90;;;18.30;79.21;101228.50;4988375;28;20046;-73
2022/07/18 01:09:53;;;;;;;2.55;1.55;;;18.50;54.60;;;18.20;80.69;101228.03;4970135;28;20153;-73
2022/07/18 01:12:20;;;;;;;4.13;2.08;;;18.50;54.80;;;18.10;79.90;101222.22;4987006;28;20052;-73
2022/07/18 01:14:47;;;;;;;2.55;1.80;;;18.50;54.70;;;18.21;79.07;101218.25;4987899;28;20042;-75
2022/07/18 01:17:18;;;;;;;2.45;1.67;;;18.30;54.60;;;18.17;80.28;101222.84;4986967;28;20924;-74
2022/07/18 01:19:48;;;;;;;3.08;2.17;;;18.30;55.00;;;18.12;80.49;101212.38;4986450;28;20415;-74
2022/07/18 01:22:19;;;;;;;4.38;1.85;;;18.30;55.10;;;18.18;79.29;101221.03;4988079;28;20057;-74
2022/07/18 01:24:46;;;;;;;3.40;2.25;;;18.20;55.00;;;18.16;80.30;101212.25;4987204;28;20080;-74
2022/07/18 01:27:20;;;;;;;3.25;2.00;;;18.30;55.20;;;18.18;79.13;101211.25;4986865;28;20038;-74
2022/07/18 01:29:50;;;;;;;3.58;1.92;;;18.20;55.10;;;18.11;81.61;101215.97;4986525;28;20096;-74
2022/07/18 01:32:19;;;;;;;5.18;2.47;;;18.20;55.60;;;18.06;82.46;101217.97;4986699;28;20514;-74
2022/07/18 01:34:48;;;;;;;4.03;1.83;;;18.20;55.70;;;18.02;84.47;101211.03;4968316;28;20042;-73
2022/07/18 01:37:16;;;;;;;2.97;1.90;;;18.20;56.10;;;17.99;86.27;101216.44;4967638;28;20061;-74
2022/07/18 01:39:45;;;;;;;2.20;1.65;;;18.20;56.50;;;18.04;83.00;101216.28;4966821;28;20039;-74
2022/07/18 01:42:13;;;;;;;4.43;2.55;;;18.00;56.10;;;17.82;88.76;101219.81;4951080;28;20043;-75
2022/07/18 01:44:41;;;;;;;5.45;1.70;;;18.10;56.80;;;17.76;88.35;101214.72;4967036;28;20119;-74
2022/07/18 01:47:10;;;;;;;3.05;1.80;;;18.00;56.80;;;17.67;89.94;101219.53;4973542;28;20050;-74
2022/07/18 01:49:39;;;;;;;4.15;2.17;;;17.90;57.20;;;17.68;87.29;101221.25;4986252;28;20042;-74
2022/07/18 01:52:07;;;;;;;5.25;2.28;;;17.80;57.10;;;17.53;92.40;101222.72;4986734;28;20058;-74
2022/07/18 01:54:36;;;;;;;3.85;2.13;;;17.80;57.90;;;17.53;91.98;101219.19;4986153;28;20065;-74
2022/07/18 01:57:06;;;;;;;3.28;1.92;;;17.70;57.90;;;17.32;95.31;101218.25;4988107;28;20080;-74
2022/07/18 01:59:33;;;;;;;3.22;1.70;;;17.70;58.60;;;17.15;97.50;101225.09;4969978;28;20046;-74
2022/07/18 02:02:01;;;;;;;3.10;2.25;;;17.60;59.00;;;17.18;96.92;101230.28;4987650;28;20038;-74
2022/07/18 02:07:14;;;;;;;2.88;1.80;;;17.50;59.30;;;17.15;96.59;101228.59;4986456;28;20046;-74
2022/07/18 02:09:41;;;;;;;2.78;1.40;;;17.40;59.80;;;17.10;96.61;101232.38;4969864;28;20050;-74
2022/07/18 02:12:08;;;;;;;4.78;1.73;;;17.40;59.90;;;17.21;95.64;101227.50;4987294;28;20057;-74
2022/07/18 02:14:35;;;;;;;2.55;1.90;;;17.30;60.00;;;17.21;94.18;101216.00;4989587;28;20065;-73
2022/07/18 02:17:02;;;;;;;2.55;2.00;;;17.30;59.90;;;17.14;94.45;101215.38;4970281;28;20687;-75
2022/07/18 02:19:29;;;;;;;1.67;1.58;;;17.30;60.00;;;17.21;95.16;101224.84;4971125;28;20073;-74
2022/07/18 02:21:56;;;;;;;2.13;1.70;;;17.40;60.30;;;17.17;94.65;101228.53;4973961;28;20686;-73
2022/07/18 02:24:23;;;;;;;3.65;1.95;;;17.30;60.70;;;17.20;95.47;101225.75;4954191;28;20051;-73
2022/07/18 02:26:50;;;;;;;2.75;2.20;;;17.30;61.00;;;17.20;96.38;101220.44;4970551;28;20043;-74
2022/07/18 02:29:17;;;;;;;3.38;1.58;;;17.30;61.30;;;17.18;94.47;101222.31;4970009;28;20472;-73
2022/07/18 02:31:44;;;;;;;4.20;2.15;;;17.30;61.20;;;17.07;94.70;101214.75;4971648;28;20054;-74
2022/07/18 02:34:11;;;;;;;3.28;2.15;;;17.30;61.60;;;16.90;96.74;101219.78;4970195;28;20069;-73
2022/07/18 02:36:39;;;;;;;2.08;1.70;;;17.20;61.40;;;16.84;96.54;101224.38;4972050;28;20058;-74
2022/07/18 02:39:08;;;;;;;3.45;1.90;;;16.70;61.30;;;16.83;99.57;101219.16;4969698;28;20046;-74
2022/07/18 02:41:36;;;;;;;2.38;2.00;;;17.10;62.50;;;16.78;99.32;101223.75;4969727;28;20438;-74
2022/07/18 02:44:03;;;;;;;2.40;1.67;;;17.00;62.80;;;16.74;98.24;101225.66;4953498;28;20047;-74
2022/07/18 02:46:30;;;;;;;2.88;2.00;;;17.00;62.70;;;16.71;99.58;101223.97;4987784;28;20047;-74
2022/07/18 02:48:58;;;;;;;2.38;1.70;;;17.00;63.40;;;16.67;99.80;101229.44;4989050;28;20054;-74
2022/07/18 02:51:25;;;;;;;2.75;2.03;;;16.90;63.70;;;16.64;98.14;101225.13;4990760;28;20047;-73
2022/07/18 02:53:54;;;;;;;2.22;1.83;;;16.80;63.50;;;16.64;98.71;101222.47;4990540;28;20039;-74
2022/07/18 02:56:21;;;;;;;7.05;2.47;;;16.90;63.90;;;16.57;100.00;101223.59;4991286;28;20563;-74
2022/07/18 02:58:48;;;;;;;4.90;2.47;;;16.90;64.60;;;16.59;100.00;101221.75;4989587;28;20050;-73
2022/07/18 03:01:15;;;;;;;3.22;1.85;;;16.80;64.80;;;16.55;99.96;101222.78;4990198;28;20050;-73
2022/07/18 03:03:42;;;;;;;3.85;1.95;;;16.80;65.00;;;16.65;97.75;101221.56;4990532;28;20050;-73
2022/07/18 03:06:09;;;;;;;1.83;1.55;;;16.80;64.90;;;16.65;95.99;101220.69;4989734;28;20039;-73
2022/07/18 03:08:36;;;;;;;5.95;2.20;;;16.80;64.60;;;16.56;98.57;101221.88;4988975;28;20042;-73
2022/07/18 03:11:03;;;;;;;3.50;1.85;;;16.70;65.10;;;16.63;97.19;101222.53;4972745;28;20126;-73
2022/07/18 03:13:30;;;;;;;3.83;1.90;;;16.80;65.40;;;16.62;98.54;101221.63;4988468;28;20045;-73
2022/07/18 03:15:57;;;;;;;4.15;2.20;;;16.80;65.50;;;16.39;100.00;101219.78;4991107;28;20463;-73
2022/07/18 03:18:25;;;;;;;4.88;2.47;;;16.70;66.40;;;16.47;99.54;101224.84;4989806;28;20057;-73
2022/07/18 03:20:52;;;;;;;2.35;1.85;;;16.60;65.90;;;16.37;100.00;101217.22;4989354;28;20125;-74
2022/07/18 03:23:19;;;;;;;3.72;2.45;;;16.60;67.30;;;16.43;98.78;101224.09;4988323;28;20050;-73
2022/07/18 03:25:46;;;;;;;2.63;2.20;;;16.60;66.40;;;16.42;100.00;101227.69;4987964;28;20057;-73
2022/07/18 03:28:13;;;;;;;3.50;2.08;;;16.60;67.10;;;16.38;100.00;101213.63;4989136;28;20675;-73
2022/07/18 03:30:40;;;;;;;2.38;1.83;;;16.60;68.00;;;16.26;100.00;101214.06;4989729;28;20042;-73
2022/07/18 03:33:08;;;;;;;3.95;2.00;;;16.50;68.70;;;16.13;100.00;101213.63;4988552;28;20061;-73
2022/07/18 03:35:35;;;;;;;2.72;2.05;;;16.50;69.60;;;16.13;100.00;101221.56;4990055;28;20054;-73
2022/07/18 03:38:02;;;;;;;3.90;1.90;;;16.40;69.60;;;16.14;100.00;101215.34;4990162;28;20387;-74
2022/07/18 03:40:29;;;;;;;4.00;2.05;;;16.40;69.90;;;15.88;100.00;101220.56;4988043;28;20061;-75
2022/07/18 03:42:56;;;;;;;2.58;2.00;;;16.30;71.40;;;15.90;100.00;101223.19;4987970;28;20095;-74
2022/07/18 03:45:23;;;;;;;3.40;2.47;;;16.20;71.90;;;15.84;100.00;101221.59;4987881;28;20043;-73
2022/07/18 03:47:50;;;;;;;4.28;2.30;;;16.20;72.40;;;15.88;100.00;101222.34;4989906;28;20050;-73
2022/07/18 03:50:17;;;;;;;2.45;1.90;;;16.10;72.60;;;15.95;100.00;101223.06;4988868;28;20042;-73
2022/07/18 03:52:44;;;;;;;3.28;2.38;;;16.10;72.20;;;15.95;100.00;101223.06;4971926;28;20050;-74
2022/07/18 03:55:11;;;;;;;5.75;1.73;;;16.20;72.90;;;15.92;100.00;101217.84;4989115;28;20046;-74
2022/07/18 03:57:38;;;;;;;2.42;1.88;;;16.10;73.00;;;15.79;100.00;101220.00;4988618;28;20050;-74
2022/07/18 04:00:09;;;;;;;7.00;2.08;;;16.10;74.30;;;15.68;100.00;101218.56;4987785;28;20046;-73
2022/07/18 04:02:45;;;;;;;4.35;2.40;;;16.00;75.10;;;15.82;100.00;101218.09;4985260;28;20056;-74
2022/07/18 04:05:13;;;;;;;4.15;2.17;;;16.00;75.20;;;15.73;100.00;101229.03;4988156;28;20042;-74
2022/07/18 04:07:43;;;;;;;2.63;1.77;;;16.00;75.70;;;15.76;100.00;101228.03;4988720;28;20035;-72
2022/07/18 04:10:12;;;;;;;3.78;1.63;;;16.00;76.10;;;15.87;100.00;101228.56;4989251;28;20760;-74
2022/07/18 04:12:48;;;;;;;3.83;2.05;;;16.00;75.20;;;15.92;100.00;101223.16;4988363;28;20417;-74
2022/07/18 04:15:16;;;;;;;4.05;2.13;;;16.00;74.40;;;15.86;100.00;101229.50;4972466;28;20051;-77
2022/07/18 04:17:43;;;;;;;2.67;2.00;;;16.00;75.00;;;15.80;100.00;101227.91;4979082;28;20047;-77
2022/07/18 04:20:12;;;;;;;2.78;1.70;;;16.50;73.80;;;15.98;98.85;101230.91;4953008;28;20058;-76
2022/07/18 04:22:58;;;;;;;3.10;2.00;;;16.10;72.70;;;15.97;100.00;101234.47;4983716;28;20043;-76
2022/07/18 04:25:36;;;;;;;3.63;2.20;;;16.10;74.00;;;15.92;100.00;101236.44;4975565;28;20414;-76
2022/07/18 04:28:05;;;;;;;4.57;2.00;;;16.00;75.10;;;15.95;100.00;101233.66;4988622;28;20471;-76
2022/07/18 04:30:33;;;;;;;3.13;1.83;;;16.10;74.90;;;15.94;100.00;101235.47;4979469;28;20427;-75
2022/07/18 04:33:06;;;;;;;2.58;1.95;;;16.10;74.00;;;16.25;96.90;101242.41;4987319;28;20137;-76
2022/07/18 04:35:35;;;;;;;2.88;1.73;;;16.20;73.20;;;16.32;95.54;101236.88;4968179;28;20046;-76
2022/07/18 04:38:04;;;;;;;5.15;2.67;;;16.20;72.40;;;16.29;100.00;101235.19;4960480;28;20047;-76
2022/07/18 04:40:31;;;;;;;3.20;2.05;;;16.30;74.00;;;16.24;100.00;101242.44;4969012;28;20054;-76
2022/07/18 04:42:59;;;;;;;2.88;1.80;;;16.30;75.70;;;16.12;100.00;101243.75;4970255;28;20047;-76
2022/07/18 04:45:26;;;;;;;2.30;2.10;;;16.30;75.90;;;16.11;100.00;101239.34;4974167;28;20049;-76
2022/07/18 04:47:55;;;;;;;4.35;2.00;;;16.30;75.80;;;16.11;100.00;101242.00;4989016;28;20056;-78
2022/07/18 04:50:23;;;;;;;2.53;1.73;;;16.30;74.80;;;16.14;100.00;101242.75;4996103;28;20026;-77
2022/07/18 04:52:51;;;;;;;3.40;1.95;;;16.30;74.20;;;16.18;96.18;101235.56;5013075;28;20038;-77
2022/07/18 04:55:22;;;;;;;4.40;2.28;;;16.60;73.00;;;16.42;94.17;101249.78;4993502;28;20042;-78
2022/07/18 04:57:50;;;;;;;5.55;2.05;;;16.30;72.40;;;16.59;90.23;101237.69;5003555;28;20117;-77
2022/07/18 05:00:22;;;;;;;3.22;2.22;;;16.80;72.30;;;16.55;92.82;101234.31;4980048;28;20054;-79
2022/07/18 05:02:52;;;;;;;2.10;1.80;;;16.50;72.20;;;16.73;85.50;101234.56;4993099;28;20081;-77
2022/07/18 05:05:20;;;;;;;;;;;16.50;70.90;;;16.60;87.08;101239.44;4977612;28;20054;-80
2022/07/18 05:07:48;;;;;;;4.38;2.65;;;16.70;70.10;;;16.58;86.13;101238.63;4976306;28;19925;-78
2022/07/18 05:10:19;;;;;;;3.97;2.30;;;16.70;69.10;;;16.57;84.26;101245.75;4972536;28;20047;-78
2022/07/18 05:12:50;;;;;;;3.80;2.42;;;16.70;68.60;;;16.47;84.48;101246.09;4976789;28;20042;-81
2022/07/18 05:15:20;;;;;;;9.63;2.58;;;16.70;67.80;;;16.57;88.62;101243.09;4988130;28;20074;-76
2022/07/18 05:17:47;;;;;;;3.58;2.03;;;16.70;69.50;;;16.70;88.75;101246.16;4987491;28;20042;-75
2022/07/18 05:20:18;;;;;;;4.38;2.28;;;16.70;69.80;;;16.79;85.88;101244.97;4987589;28;20049;-76
2022/07/18 05:22:47;;;;;;;9.23;2.10;;;16.80;69.30;;;16.94;86.04;101242.66;4987837;28;20038;-76
2022/07/18 05:25:14;;;;;;;6.10;1.90;;;16.90;69.20;;;17.06;82.44;101244.91;4971845;28;20551;-77
2022/07/18 05:27:42;;;;;;;5.93;2.45;;;17.00;68.60;;;17.20;82.11;101244.38;4987554;28;20503;-76
2022/07/18 05:30:13;;;;;;;5.32;1.88;;;17.10;68.60;;;17.32;82.41;101250.16;4987398;28;20038;-76
2022/07/18 05:32:42;;;;;;;2.97;1.92;;;17.10;68.70;;;17.42;82.42;101249.75;4987691;28;20516;-76
2022/07/18 05:35:11;;;;;;;6.57;1.85;;;17.20;68.70;;;17.54;81.82;101240.41;4970799;28;20559;-76
2022/07/18 05:37:40;;;;;;;9.15;2.05;;;17.30;68.60;;;17.66;81.35;101236.41;4973684;28;20512;-78
2022/07/18 05:40:10;;;;;;;4.03;1.70;;;17.40;68.40;;;17.77;80.19;101251.94;4957165;28;20057;-79
2022/07/18 05:42:37;;;;;;;5.45;2.15;;;17.50;68.20;;;17.85;78.15;101244.50;4954061;28;20441;-75
2022/07/18 05:45:23;;;;;;;5.55;1.90;;;17.60;67.70;;;17.93;74.65;101243.34;4969238;28;20043;-77
2022/07/18 05:47:52;;;;;;;3.10;1.90;;;17.70;67.10;;;18.03;70.79;101246.50;4969356;28;20039;-77
2022/07/18 05:50:19;;;;;;;4.75;2.33;;;17.80;66.10;;;18.11;73.58;101250.59;4972175;28;20062;-78
2022/07/18 05:52:46;;;;;;;2.60;1.83;;;17.90;66.80;;;18.21;72.44;101247.56;4972412;28;20077;-77
2022/07/18 05:55:14;;;;;;;2.67;1.77;;;17.90;66.50;;;18.33;70.43;101243.50;4972550;28;20134;-78
2022/07/18 05:57:41;;;;;;;4.13;1.80;;;18.10;65.90;;;18.37;68.78;101237.09;4972239;28;20548;-79
2022/07/18 06:00:10;;;;;;;4.85;2.10;;;18.10;65.30;;;18.47;65.58;101241.09;4956626;28;20042;-78
2022/07/18 06:02:37;;;;;;;3.65;1.83;;;18.20;64.50;;;18.55;67.33;101238.94;4940857;28;20050;-78
2022/07/18 06:05:07;;;;;;;5.80;1.90;;;18.30;65.00;;;18.65;64.95;101236.75;4956230;28;20162;-77
2022/07/18 06:07:56;;;;;;;2.58;2.00;;;18.40;64.30;;;18.75;62.60;101242.56;4973034;28;20130;-78
2022/07/18 06:10:26;;;;;;;5.85;2.22;;;18.50;63.50;;;18.80;61.66;101242.34;4971896;28;20141;-77
2022/07/18 06:12:54;;;;;;;4.80;1.80;;;18.60;63.20;;;18.88;59.88;101241.97;4988920;28;20055;-78
2022/07/18 06:15:21;;;;;;;2.30;1.45;;;18.60;62.50;;;18.96;61.88;101237.19;4975504;28;20491;-77
2022/07/18 06:17:49;;;;;;;4.07;1.70;;;18.70;63.00;;;19.02;59.94;101233.41;4979838;28;20149;-77
2022/07/18 06:20:17;;;;;;;5.22;1.90;;;18.80;62.30;;;19.12;60.29;101234.69;4955633;28;20054;-77
2022/07/18 06:22:44;;;;;;;3.33;2.00;;;18.90;62.40;;;19.19;56.63;101238.81;4972292;28;20042;-78
2022/07/18 06:25:11;;;;;;;2.25;1.50;;;18.90;61.20;;;19.30;56.18;101237.47;4975142;28;20043;-77
2022/07/18 06:27:38;;;;;;;3.70;1.60;;;19.00;61.00;;;19.34;54.44;101231.91;4972010;28;20758;-78
2022/07/18 06:30:09;;;;;;;4.20;1.40;;;19.10;60.30;;;19.43;53.68;101235.94;4955903;28;20042;-77
2022/07/18 06:32:37;;;;;;;4.10;1.75;;;19.10;60.00;;;19.52;53.26;101231.97;4974008;28;20074;-76
2022/07/18 06:35:05;;;;;;;5.85;1.90;;;19.30;59.90;;;19.59;53.26;101221.84;4959462;28;20043;-77
2022/07/18 06:37:32;;;;;;;3.97;1.70;;;19.30;59.90;;;19.62;52.48;101224.38;4971479;28;20505;-78
2022/07/18 06:39:59;;;;;;;4.55;1.50;;;19.40;59.50;;;19.78;53.22;101228.03;4978177;28;20042;-77
2022/07/18 06:42:30;;;;;;;3.15;1.77;;;19.50;59.80;;;19.83;51.81;101231.34;4969358;28;20050;-77
2022/07/18 06:44:58;;;;;;;3.53;1.90;;;19.50;59.20;;;19.89;51.01;101223.94;4983838;28;20069;-77
2022/07/18 06:47:25;;;;;;;2.85;1.50;;;19.60;58.80;;;19.98;50.68;101226.22;4976014;28;20042;-76
2022/07/18 06:49:52;;;;;;;3.22;1.88;;;19.80;58.80;;;20.06;49.95;101229.38;4974034;28;20520;-78
2022/07/18 06:52:19;;;;;;;3.85;1.60;;;19.80;58.50;;;20.19;48.64;101229.59;4958349;28;20051;-78
2022/07/18 06:54:46;;;;;;;3.63;1.90;;;19.80;57.80;;;20.25;48.42;101231.94;4955859;28;20142;-75
2022/07/18 06:57:13;;;;;;;3.95;1.73;;;20.00;57.70;;;20.37;48.72;101233.16;4970946;28;20428;-75
2022/07/18 06:59:40;;;;;;;4.85;2.00;;;20.00;57.90;;;20.49;48.79;101233.44;4971769;28;20046;-75
2022/07/18 07:02:14;;;;;;;4.72;2.05;;;20.10;58.00;;;20.55;48.03;101231.31;4979470;28;20050;-75
2022/07/18 07:04:42;;;;;;;3.70;1.70;;;20.20;57.60;;;20.62;46.34;101223.84;4974093;28;20054;-77
2022/07/18 07:07:09;;;;;;;3.13;1.65;;;20.30;56.60;;;20.73;46.31;101231.28;4959037;28;20595;-77
2022/07/18 07:09:36;;;;;;;2.60;1.73;;;20.30;56.70;;;20.90;45.93;101222.41;4989821;28;20038;-77
2022/07/18 07:12:03;;;;;;;4.20;1.75;;;20.50;56.70;;;20.98;46.31;101224.66;4989530;28;20057;-74
2022/07/18 07:14:30;;;;;;;3.90;2.00;;;20.60;56.80;;;21.11;46.30;101228.38;4990093;28;20125;-73
2022/07/18 07:16:57;;;;;;;7.03;1.98;;;20.70;56.80;;;21.18;45.69;101236.94;4990233;28;20046;-74
2022/07/18 07:19:25;;;;;;;3.15;1.70;;;20.80;56.50;;;21.28;44.63;101228.38;4988520;28;20504;-74
2022/07/18 07:21:52;;;;;;;3.17;1.75;;;20.80;55.80;;;21.39;44.70;101223.31;4989741;28;20056;-73
2022/07/18 07:24:19;;;;;;;5.90;1.40;;;21.00;55.90;;;21.48;44.28;101225.47;4989706;28;20399;-75
2022/07/18 07:26:46;;;;;;;2.63;1.42;;;21.10;55.50;;;21.55;42.90;101223.31;4989614;28;20678;-75
2022/07/18 07:29:21;;;;;;;2.35;1.30;;;21.20;55.00;;;21.61;42.78;101214.91;4989610;28;20046;-75
2022/07/18 07:31:48;;;;;;;10.90;2.08;;;21.30;54.80;;;21.73;42.67;101220.56;4988379;28;20046;-73
2022/07/18 07:34:15;;;;;;;3.67;1.63;;;21.30;54.80;;;21.81;41.95;101211.13;4989534;28;20052;-75
2022/07/18 07:36:42;;;;;;;3.60;1.50;;;21.40;54.10;;;21.89;42.69;101213.38;4989878;28;20051;-75
2022/07/18 07:39:09;;;;;;;1.90;1.30;;;21.50;54.70;;;22.01;42.49;101210.88;4989699;28;20056;-75
2022/07/18 07:41:36;;;;;;;7.05;1.65;;;21.50;54.60;;;22.08;41.26;101215.78;4989566;28;20407;-75
2022/07/18 07:44:04;;;;;;;3.80;1.65;;;21.60;53.80;;;22.14;40.71;101211.03;4990920;28;20073;-76
2022/07/18 07:46:31;;;;;;;4.60;1.77;;;21.70;53.20;;;22.21;40.71;101221.31;4989076;28;20540;-76
2022/07/18 07:48:58;;;;;;;3.13;1.45;;;21.80;53.40;;;22.32;41.49;101212.63;4989185;28;20145;-77
2022/07/18 07:51:27;;;;;;;8.27;1.40;;;21.90;53.80;;;22.42;40.70;101218.28;4989463;28;20061;-76
2022/07/18 07:54:02;;;;;;;2.10;1.30;;;22.00;53.40;;;22.51;40.18;101209.72;5004527;28;20050;-75
2022/07/18 07:56:29;;;;;;;4.28;1.83;;;22.00;53.10;;;22.61;40.02;101211.81;4973534;28;20129;-75
2022/07/18 07:58:56;;;;;;;3.30;1.58;;;22.10;53.00;;;22.64;40.51;101208.97;4988615;28;20055;-75
2022/07/18 08:01:23;;;;;;;3.25;1.70;;;22.20;53.20;;;22.74;39.87;101211.94;4988700;28;20157;-75
2022/07/18 08:03:50;;;;;;;3.55;1.67;;;22.30;52.80;;;22.83;39.98;101214.03;4990093;28;20050;-75
2022/07/18 08:06:17;;;;;;;4.13;1.88;;;22.40;52.90;;;22.88;39.93;101205.69;4972596;28;20080;-76
2022/07/18 08:08:44;;;;;;;2.75;1.50;;;22.40;52.80;;;22.99;38.64;101203.22;4989831;28;20073;-75
2022/07/18 08:11:11;;;;;;;2.90;1.60;;;22.50;52.00;;;23.06;39.27;101192.94;4989103;28;20547;-75
2022/07/18 08:13:38;;;;;;;2.92;1.45;;;22.60;52.50;;;23.07;39.09;101194.66;4988690;28;20046;-76
2022/07/18 08:16:05;;;;;;;4.28;1.88;;;22.60;52.10;;;23.19;38.73;101191.19;4989721;28;20042;-77
2022/07/18 08:18:33;;;;;;;2.63;1.45;;;22.70;52.00;;;23.34;39.88;101189.38;4975923;28;20046;-76
2022/07/18 08:21:00;;;;;;;3.38;1.88;;;22.80;52.80;;;23.45;37.25;101183.28;4996717;28;20054;-77
2022/07/18 08:23:27;;;;;;;2.72;1.50;;;22.90;51.20;;;23.57;37.21;101184.31;4969995;28;20047;-75
2022/07/18 08:25:54;;;;;;;3.38;1.60;;;23.00;51.00;;;23.68;39.10;101188.97;4970771;28;20786;-76
2022/07/18 08:28:21;;;;;;;3.28;1.55;;;23.20;52.00;;;23.70;38.04;101187.03;4983260;28;20050;-76
2022/07/18 08:30:48;;;;;;;2.45;1.60;;;23.30;51.40;;;23.81;37.92;101190.84;4988744;28;20042;-75
2022/07/18 08:33:15;;;;;;;2.35;1.20;;;23.40;52.00;;;23.88;35.10;101190.31;4988759;28;20157;-75
2022/07/18 08:35:42;;;;;;;1.90;1.20;;;23.40;49.50;;;23.93;35.76;101185.50;4988081;28;20049;-75
2022/07/18 08:38:09;;;;;;;3.67;1.48;;;23.50;49.90;;;24.08;36.00;101190.81;4971835;28;20108;-78
2022/07/18 08:40:38;;;;;;;2.45;1.20;;;23.50;50.10;;;24.14;34.48;101182.31;4989040;28;20506;-78
2022/07/18 08:43:05;;;;;;;2.90;1.50;;;23.60;49.30;;;24.28;35.28;101183.19;4989312;28;20077;-77
2022/07/18 08:45:56;;;;;;;6.45;1.70;;;23.70;49.60;;;24.50;34.18;101178.03;4977069;28;20539;-78
2022/07/18 08:48:23;;;;;;;3.08;1.58;;;23.90;48.90;;;24.66;33.14;101176.09;4974185;28;20058;-78
2022/07/18 08:50:51;;;;;;;3.13;1.52;;;24.10;48.10;;;24.65;33.93;101177.91;4972923;28;20050;-77
2022/07/18 08:53:20;;;;;;;2.17;1.10;;;24.10;48.40;;;24.70;34.01;101177.59;4989102;28;20038;-77
2022/07/18 08:55:48;;;;;;;3.03;1.48;;;24.20;48.50;;;24.71;34.38;101169.44;4975686;28;20046;-76
2022/07/18 08:58:17;;;;;;;1.45;1.20;;;24.30;48.60;;;24.80;34.26;101177.81;4996387;28;20137;-77
2022/07/18 09:01:05;;;;;;;3.50;1.52;;;24.30;48.50;;;24.90;34.05;101170.81;4997145;28;20031;-77
2022/07/18 09:03:32;;;;;;;2.30;1.42;;;24.40;48.30;;;24.99;35.01;101177.38;4980229;28;20070;-76
2022/07/18 09:06:13;;;;;;;2.88;1.52;;;24.50;48.90;;;25.13;34.58;101168.28;4982423;28;20085;-78
2022/07/18 09:09:01;;;;;;;3.78;1.63;;;24.60;49.00;;;25.15;33.69;101164.50;4994253;28;20047;-78
2022/07/18 09:11:28;;;;;;;3.45;1.30;;;24.70;48.20;;;25.30;33.57;101167.03;4994283;28;20049;-77
2022/07/18 09:14:43;;;;;;;4.22;1.80;;;24.70;48.30;;;25.30;34.46;101161.66;4987244;28;20043;-76
2022/07/18 09:17:23;;;;;;;3.55;1.38;;;24.80;48.50;;;25.37;34.21;101164.75;4993897;28;20508;-77
2022/07/18 09:20:14;;;;;;;5.05;1.42;;;24.90;48.30;;;25.44;33.16;101169.56;4971108;28;20556;-78
2022/07/18 09:22:45;;;;;;;2.05;1.13;;;25.00;47.90;;;25.43;33.29;101167.84;4969910;28;20298;-77
2022/07/18 09:25:21;;;;;;;5.78;1.70;;;25.00;47.80;;;25.54;33.34;101161.69;4953648;28;20051;-77
2022/07/18 09:27:52;;;;;;;3.38;1.63;;;25.00;47.80;;;25.64;33.05;101156.47;4954195;28;20141;-78
2022/07/18 09:30:35;;;;;;;2.95;1.20;;;25.10;47.40;;;25.76;31.94;101160.09;4974309;28;20126;-77
2022/07/18 09:33:02;;;;;;;3.05;1.70;;;25.20;47.00;;;25.88;32.54;101152.88;4988126;28;20042;-77
2022/07/18 09:35:33;;;;;;;4.82;1.52;;;25.30;47.20;;;26.02;31.04;101160.75;4973282;28;20149;-77
2022/07/18 09:38:11;;;;;;;3.17;1.35;;;25.50;45.90;;;26.09;31.15;101154.88;4989141;28;20054;-77
2022/07/18 09:40:52;;;;;;;3.08;1.30;;;25.50;46.30;;;26.07;30.89;101146.06;4989232;28;20570;-77
2022/07/18 09:43:30;;;;;;;3.33;1.38;;;25.60;46.20;;;26.18;30.37;101144.28;4989366;28;20050;-77
2022/07/18 09:45:57;;;;;;;3.25;1.40;;;25.70;45.70;;;26.14;30.69;101142.78;4971738;28;20074;-78
2022/07/18 09:48:28;;;;;;;2.42;1.25;;;25.70;46.00;;;26.48;29.92;101142.84;4972912;28;20101;-77
2022/07/18 09:50:59;;;;;;;;;;;25.90;45.50;;;26.51;30.15;101135.47;4957200;28;20138;-79
2022/07/18 09:53:40;;;;;;;4.03;1.38;;;26.00;45.30;;;26.46;30.20;101139.41;4955560;28;19926;-78
2022/07/18 09:56:30;;;;;;;1.83;1.15;;;26.00;45.00;;;26.71;29.66;101134.75;4960247;28;20129;-76
2022/07/18 09:58:57;;;;;;;4.65;1.65;;;26.10;45.10;;;26.52;30.52;101137.19;4954480;28;20051;-77
2022/07/18 10:01:25;;;;;;;1.80;1.30;;;26.10;45.40;;;26.88;28.48;101128.00;4971695;28;20500;-77
2022/07/18 10:03:52;;;;;;;3.85;1.20;;;26.20;44.40;;;27.10;28.65;101120.84;4971275;28;20476;-77
2022/07/18 10:06:20;;;;;;;4.05;1.40;;;26.40;44.40;;;27.00;29.14;101125.28;4974990;28;20407;-77
2022/07/18 10:08:50;;;;;;;2.17;1.10;;;26.50;44.70;;;26.96;29.65;101121.97;4984032;28;20141;-76
2022/07/18 10:11:17;;;;;;;2.65;1.30;;;26.60;44.90;;;27.10;29.23;101118.16;4976884;28;20042;-77
2022/07/18 10:13:45;;;;;;;3.13;1.38;;;26.60;44.70;;;27.12;28.71;101118.88;4982173;28;20046;-76
2022/07/18 10:16:13;;;;;;;4.63;1.27;;;26.70;44.30;;;27.04;29.53;101116.81;4982654;28;20038;-77
2022/07/18 10:18:40;;;;;;;3.03;1.13;;;26.70;44.70;;;26.95;30.00;101122.94;4987203;28;20109;-77
2022/07/18 10:21:10;;;;;;;4.10;1.27;;;26.60;45.00;;;26.99;29.59;101116.31;4970999;28;20494;-77
2022/07/18 10:23:47;;;;;;;4.38;1.40;;;26.60;44.70;;;26.93;29.46;101115.94;4986325;28;20117;-77
2022/07/18 10:26:22;;;;;;;2.72;1.35;;;26.60;44.70;;;27.74;26.79;101111.03;4987105;28;20120;-76